sensor_id;sensor_type;location;lat;lon;timestamp;P1;durP1;ratioP1;P2;durP2;ratioP2
35312;SDS011;21425;50.454;30.466;2023-08-21T00:01:42;11.05;;;8.02;;
35312;SDS011;21425;50.454;30.466;2023-08-21T00:04:07;12.30;;;8.88;;
35312;SDS011;21425;50.454;30.466;2023-08-21T00:06:33;11.00;;;8.15;;
35312;SDS011;21425;50.454;30.466;2023-08-21T00:09:00;12.07;;;8.60;;
35312;SDS011;21425;50.454;30.466;2023-08-21T00:11:27;12.55;;;9.05;;
35312;SDS011;21425;50.454;30.466;2023-08-21T00:13:52;14.80;;;9.23;;
35312;SDS011;21425;50.454;30.466;2023-08-21T00:16:18;11.25;;;9.30;;
35312;SDS011;21425;50.454;30.466;2023-08-21T00:18:44;12.98;;;9.07;;
35312;SDS011;21425;50.454;30.466;2023-08-21T00:21:10;12.60;;;9.18;;
35312;SDS011;21425;50.454;30.466;2023-08-21T00:23:36;10.73;;;8.90;;
35312;SDS011;21425;50.454;30.466;2023-08-21T00:26:01;9.93;;;8.40;;
35312;SDS011;21425;50.454;30.466;2023-08-21T00:28:27;11.05;;;8.65;;
35312;SDS011;21425;50.454;30.466;2023-08-21T00:31:04;11.95;;;9.60;;
35312;SDS011;21425;50.454;30.466;2023-08-21T00:33:30;9.88;;;8.52;;
35312;SDS011;21425;50.454;30.466;2023-08-21T00:35:56;12.30;;;10.07;;
35312;SDS011;21425;50.454;30.466;2023-08-21T00:38:22;11.60;;;8.77;;
35312;SDS011;21425;50.454;30.466;2023-08-21T00:40:48;15.00;;;9.02;;
35312;SDS011;21425;50.454;30.466;2023-08-21T00:43:14;11.60;;;8.93;;
35312;SDS011;21425;50.454;30.466;2023-08-21T00:45:41;13.95;;;9.82;;
35312;SDS011;21425;50.454;30.466;2023-08-21T00:48:08;11.70;;;8.88;;
35312;SDS011;21425;50.454;30.466;2023-08-21T00:50:34;11.68;;;9.30;;
35312;SDS011;21425;50.454;30.466;2023-08-21T00:53:00;13.35;;;9.25;;
35312;SDS011;21425;50.454;30.466;2023-08-21T00:55:28;13.23;;;10.07;;
35312;SDS011;21425;50.454;30.466;2023-08-21T00:57:54;13.60;;;9.77;;
35312;SDS011;21425;50.454;30.466;2023-08-21T01:00:20;12.43;;;9.15;;
35312;SDS011;21425;50.454;30.466;2023-08-21T01:02:47;10.30;;;8.95;;
35312;SDS011;21425;50.454;30.466;2023-08-21T01:05:13;13.50;;;9.13;;
35312;SDS011;21425;50.454;30.466;2023-08-21T01:07:43;12.80;;;9.85;;
35312;SDS011;21425;50.454;30.466;2023-08-21T01:10:34;10.02;;;8.75;;
35312;SDS011;21425;50.454;30.466;2023-08-21T01:13:16;12.55;;;9.45;;
35312;SDS011;21425;50.454;30.466;2023-08-21T01:15:45;13.77;;;9.75;;
35312;SDS011;21425;50.454;30.466;2023-08-21T01:18:11;14.95;;;9.70;;
35312;SDS011;21425;50.454;30.466;2023-08-21T01:20:38;13.95;;;9.00;;
35312;SDS011;21425;50.454;30.466;2023-08-21T01:23:04;12.25;;;9.35;;
35312;SDS011;21425;50.454;30.466;2023-08-21T01:25:31;13.05;;;9.93;;
35312;SDS011;21425;50.454;30.466;2023-08-21T01:27:57;10.45;;;9.00;;
35312;SDS011;21425;50.454;30.466;2023-08-21T01:30:23;11.25;;;9.98;;
35312;SDS011;21425;50.454;30.466;2023-08-21T01:33:00;13.63;;;8.73;;
35312;SDS011;21425;50.454;30.466;2023-08-21T01:35:30;13.45;;;9.40;;
35312;SDS011;21425;50.454;30.466;2023-08-21T01:37:59;11.07;;;9.05;;
35312;SDS011;21425;50.454;30.466;2023-08-21T01:40:26;11.00;;;9.45;;
35312;SDS011;21425;50.454;30.466;2023-08-21T01:42:54;11.50;;;8.85;;
35312;SDS011;21425;50.454;30.466;2023-08-21T01:45:20;13.75;;;9.73;;
35312;SDS011;21425;50.454;30.466;2023-08-21T01:47:46;15.95;;;9.73;;
35312;SDS011;21425;50.454;30.466;2023-08-21T01:50:12;15.23;;;9.20;;
35312;SDS011;21425;50.454;30.466;2023-08-21T01:52:38;10.15;;;8.98;;
35312;SDS011;21425;50.454;30.466;2023-08-21T01:55:04;12.85;;;10.05;;
35312;SDS011;21425;50.454;30.466;2023-08-21T01:57:32;13.15;;;10.18;;
35312;SDS011;21425;50.454;30.466;2023-08-21T01:59:58;14.18;;;10.48;;
35312;SDS011;21425;50.454;30.466;2023-08-21T02:02:24;15.05;;;9.52;;
35312;SDS011;21425;50.454;30.466;2023-08-21T02:04:49;11.70;;;8.68;;
35312;SDS011;21425;50.454;30.466;2023-08-21T02:07:15;14.88;;;10.30;;
35312;SDS011;21425;50.454;30.466;2023-08-21T02:09:40;12.90;;;9.80;;
35312;SDS011;21425;50.454;30.466;2023-08-21T02:12:06;12.75;;;9.68;;
35312;SDS011;21425;50.454;30.466;2023-08-21T02:14:33;11.52;;;9.43;;
35312;SDS011;21425;50.454;30.466;2023-08-21T02:16:58;12.00;;;10.45;;
35312;SDS011;21425;50.454;30.466;2023-08-21T02:19:25;13.88;;;10.18;;
35312;SDS011;21425;50.454;30.466;2023-08-21T02:21:50;12.07;;;10.07;;
35312;SDS011;21425;50.454;30.466;2023-08-21T02:24:16;14.68;;;9.95;;
35312;SDS011;21425;50.454;30.466;2023-08-21T02:26:42;13.00;;;10.50;;
35312;SDS011;21425;50.454;30.466;2023-08-21T02:29:10;13.63;;;10.07;;
35312;SDS011;21425;50.454;30.466;2023-08-21T02:31:36;14.43;;;10.50;;
35312;SDS011;21425;50.454;30.466;2023-08-21T02:34:01;15.57;;;10.80;;
35312;SDS011;21425;50.454;30.466;2023-08-21T02:36:27;11.85;;;9.57;;
35312;SDS011;21425;50.454;30.466;2023-08-21T02:38:52;12.23;;;9.43;;
35312;SDS011;21425;50.454;30.466;2023-08-21T02:41:18;12.02;;;9.85;;
35312;SDS011;21425;50.454;30.466;2023-08-21T02:43:44;16.15;;;10.38;;
35312;SDS011;21425;50.454;30.466;2023-08-21T02:46:10;11.07;;;9.23;;
35312;SDS011;21425;50.454;30.466;2023-08-21T02:48:35;14.25;;;9.63;;
35312;SDS011;21425;50.454;30.466;2023-08-21T02:51:01;12.65;;;9.65;;
35312;SDS011;21425;50.454;30.466;2023-08-21T02:53:27;12.45;;;9.60;;
35312;SDS011;21425;50.454;30.466;2023-08-21T02:55:53;12.05;;;9.60;;
35312;SDS011;21425;50.454;30.466;2023-08-21T02:58:19;15.98;;;9.57;;
35312;SDS011;21425;50.454;30.466;2023-08-21T03:00:45;12.38;;;9.88;;
35312;SDS011;21425;50.454;30.466;2023-08-21T03:03:11;11.65;;;10.18;;
35312;SDS011;21425;50.454;30.466;2023-08-21T03:05:36;13.40;;;10.23;;
35312;SDS011;21425;50.454;30.466;2023-08-21T03:08:02;11.35;;;9.75;;
35312;SDS011;21425;50.454;30.466;2023-08-21T03:10:28;12.82;;;9.90;;
35312;SDS011;21425;50.454;30.466;2023-08-21T03:12:58;14.18;;;9.57;;
35312;SDS011;21425;50.454;30.466;2023-08-21T03:15:24;15.68;;;10.38;;
35312;SDS011;21425;50.454;30.466;2023-08-21T03:17:49;11.93;;;9.25;;
35312;SDS011;21425;50.454;30.466;2023-08-21T03:20:15;11.30;;;9.55;;
35312;SDS011;21425;50.454;30.466;2023-08-21T03:22:42;11.60;;;9.55;;
35312;SDS011;21425;50.454;30.466;2023-08-21T03:25:08;11.93;;;9.70;;
35312;SDS011;21425;50.454;30.466;2023-08-21T03:27:34;12.02;;;9.77;;
35312;SDS011;21425;50.454;30.466;2023-08-21T03:30:04;14.27;;;9.60;;
35312;SDS011;21425;50.454;30.466;2023-08-21T03:32:31;13.23;;;9.25;;
35312;SDS011;21425;50.454;30.466;2023-08-21T03:34:57;11.73;;;9.45;;
35312;SDS011;21425;50.454;30.466;2023-08-21T03:37:23;16.05;;;9.68;;
35312;SDS011;21425;50.454;30.466;2023-08-21T03:39:49;16.15;;;10.20;;
35312;SDS011;21425;50.454;30.466;2023-08-21T03:42:15;16.00;;;10.40;;
35312;SDS011;21425;50.454;30.466;2023-08-21T03:44:41;15.85;;;9.68;;
35312;SDS011;21425;50.454;30.466;2023-08-21T03:47:07;15.02;;;10.30;;
35312;SDS011;21425;50.454;30.466;2023-08-21T03:49:33;12.75;;;10.30;;
35312;SDS011;21425;50.454;30.466;2023-08-21T03:51:59;12.98;;;9.88;;
35312;SDS011;21425;50.454;30.466;2023-08-21T03:54:25;13.77;;;10.85;;
35312;SDS011;21425;50.454;30.466;2023-08-21T03:56:51;13.30;;;10.07;;
35312;SDS011;21425;50.454;30.466;2023-08-21T03:59:16;13.10;;;10.50;;
35312;SDS011;21425;50.454;30.466;2023-08-21T04:01:42;16.73;;;10.20;;
35312;SDS011;21425;50.454;30.466;2023-08-21T04:04:08;15.15;;;10.57;;
35312;SDS011;21425;50.454;30.466;2023-08-21T04:06:35;13.82;;;9.55;;
35312;SDS011;21425;50.454;30.466;2023-08-21T04:09:01;12.63;;;10.13;;
35312;SDS011;21425;50.454;30.466;2023-08-21T04:11:29;15.60;;;10.27;;
35312;SDS011;21425;50.454;30.466;2023-08-21T04:13:55;12.02;;;9.48;;
35312;SDS011;21425;50.454;30.466;2023-08-21T04:16:22;13.10;;;10.43;;
35312;SDS011;21425;50.454;30.466;2023-08-21T04:18:48;15.80;;;9.68;;
35312;SDS011;21425;50.454;30.466;2023-08-21T04:21:13;15.02;;;10.15;;
35312;SDS011;21425;50.454;30.466;2023-08-21T04:23:39;13.13;;;9.50;;
35312;SDS011;21425;50.454;30.466;2023-08-21T04:26:05;12.35;;;10.15;;
35312;SDS011;21425;50.454;30.466;2023-08-21T04:28:31;15.73;;;11.20;;
35312;SDS011;21425;50.454;30.466;2023-08-21T04:30:57;12.77;;;10.10;;
35312;SDS011;21425;50.454;30.466;2023-08-21T04:33:30;14.55;;;9.98;;
35312;SDS011;21425;50.454;30.466;2023-08-21T04:35:55;16.88;;;10.98;;
35312;SDS011;21425;50.454;30.466;2023-08-21T04:38:21;14.77;;;10.68;;
35312;SDS011;21425;50.454;30.466;2023-08-21T04:40:47;13.75;;;9.88;;
35312;SDS011;21425;50.454;30.466;2023-08-21T04:43:13;14.73;;;10.07;;
35312;SDS011;21425;50.454;30.466;2023-08-21T04:45:46;13.93;;;11.00;;
35312;SDS011;21425;50.454;30.466;2023-08-21T04:50:38;12.93;;;10.10;;
35312;SDS011;21425;50.454;30.466;2023-08-21T04:53:04;15.90;;;10.88;;
35312;SDS011;21425;50.454;30.466;2023-08-21T04:55:30;15.98;;;9.35;;
35312;SDS011;21425;50.454;30.466;2023-08-21T04:57:56;14.25;;;10.23;;
35312;SDS011;21425;50.454;30.466;2023-08-21T05:00:22;14.32;;;10.90;;
35312;SDS011;21425;50.454;30.466;2023-08-21T05:02:47;15.98;;;10.32;;
35312;SDS011;21425;50.454;30.466;2023-08-21T05:05:13;15.45;;;10.63;;
35312;SDS011;21425;50.454;30.466;2023-08-21T05:07:39;16.75;;;10.18;;
35312;SDS011;21425;50.454;30.466;2023-08-21T05:10:05;13.80;;;10.73;;
35312;SDS011;21425;50.454;30.466;2023-08-21T05:12:31;15.88;;;9.80;;
35312;SDS011;21425;50.454;30.466;2023-08-21T05:14:57;14.02;;;10.50;;
35312;SDS011;21425;50.454;30.466;2023-08-21T05:17:24;16.55;;;9.88;;
35312;SDS011;21425;50.454;30.466;2023-08-21T05:19:51;11.18;;;9.02;;
35312;SDS011;21425;50.454;30.466;2023-08-21T05:22:17;12.90;;;9.82;;
35312;SDS011;21425;50.454;30.466;2023-08-21T05:24:43;15.45;;;10.90;;
35312;SDS011;21425;50.454;30.466;2023-08-21T05:27:08;15.02;;;10.82;;
35312;SDS011;21425;50.454;30.466;2023-08-21T05:29:34;14.45;;;10.10;;
35312;SDS011;21425;50.454;30.466;2023-08-21T05:32:00;13.00;;;10.70;;
35312;SDS011;21425;50.454;30.466;2023-08-21T05:34:26;15.45;;;10.23;;
35312;SDS011;21425;50.454;30.466;2023-08-21T05:36:53;15.25;;;10.45;;
35312;SDS011;21425;50.454;30.466;2023-08-21T05:39:19;16.15;;;10.80;;
35312;SDS011;21425;50.454;30.466;2023-08-21T05:41:45;14.93;;;10.93;;
35312;SDS011;21425;50.454;30.466;2023-08-21T05:44:11;15.23;;;10.65;;
35312;SDS011;21425;50.454;30.466;2023-08-21T05:46:37;11.52;;;9.57;;
35312;SDS011;21425;50.454;30.466;2023-08-21T05:49:03;12.73;;;10.15;;
35312;SDS011;21425;50.454;30.466;2023-08-21T05:51:28;15.38;;;9.95;;
35312;SDS011;21425;50.454;30.466;2023-08-21T05:53:54;15.45;;;9.70;;
35312;SDS011;21425;50.454;30.466;2023-08-21T05:56:21;11.95;;;9.77;;
35312;SDS011;21425;50.454;30.466;2023-08-21T05:58:47;12.52;;;10.35;;
35312;SDS011;21425;50.454;30.466;2023-08-21T06:01:12;14.40;;;9.93;;
35312;SDS011;21425;50.454;30.466;2023-08-21T06:03:38;15.40;;;10.75;;
35312;SDS011;21425;50.454;30.466;2023-08-21T06:06:04;10.77;;;9.55;;
35312;SDS011;21425;50.454;30.466;2023-08-21T06:08:31;12.18;;;9.85;;
35312;SDS011;21425;50.454;30.466;2023-08-21T06:10:56;15.45;;;10.13;;
35312;SDS011;21425;50.454;30.466;2023-08-21T06:13:22;15.63;;;10.75;;
35312;SDS011;21425;50.454;30.466;2023-08-21T06:15:48;18.52;;;9.55;;
35312;SDS011;21425;50.454;30.466;2023-08-21T06:18:13;17.10;;;10.57;;
35312;SDS011;21425;50.454;30.466;2023-08-21T06:20:42;17.15;;;10.85;;
35312;SDS011;21425;50.454;30.466;2023-08-21T06:23:08;17.77;;;10.40;;
35312;SDS011;21425;50.454;30.466;2023-08-21T06:25:35;13.57;;;10.20;;
35312;SDS011;21425;50.454;30.466;2023-08-21T06:28:01;15.23;;;10.20;;
35312;SDS011;21425;50.454;30.466;2023-08-21T06:30:27;15.50;;;10.40;;
35312;SDS011;21425;50.454;30.466;2023-08-21T06:32:53;12.43;;;10.07;;
35312;SDS011;21425;50.454;30.466;2023-08-21T06:35:19;15.77;;;10.65;;
35312;SDS011;21425;50.454;30.466;2023-08-21T06:37:45;16.67;;;9.55;;
35312;SDS011;21425;50.454;30.466;2023-08-21T06:40:11;13.02;;;10.10;;
35312;SDS011;21425;50.454;30.466;2023-08-21T06:42:36;12.85;;;9.57;;
35312;SDS011;21425;50.454;30.466;2023-08-21T06:45:03;14.48;;;10.10;;
35312;SDS011;21425;50.454;30.466;2023-08-21T06:47:30;15.15;;;9.65;;
35312;SDS011;21425;50.454;30.466;2023-08-21T06:49:56;14.70;;;10.65;;
35312;SDS011;21425;50.454;30.466;2023-08-21T06:52:22;14.60;;;10.13;;
35312;SDS011;21425;50.454;30.466;2023-08-21T06:54:47;19.02;;;10.27;;
35312;SDS011;21425;50.454;30.466;2023-08-21T06:57:13;11.63;;;9.52;;
35312;SDS011;21425;50.454;30.466;2023-08-21T06:59:39;10.32;;;9.00;;
35312;SDS011;21425;50.454;30.466;2023-08-21T07:02:05;11.65;;;8.98;;
35312;SDS011;21425;50.454;30.466;2023-08-21T07:04:31;14.00;;;9.30;;
35312;SDS011;21425;50.454;30.466;2023-08-21T07:07:00;12.13;;;8.80;;
35312;SDS011;21425;50.454;30.466;2023-08-21T07:09:26;14.75;;;9.00;;
35312;SDS011;21425;50.454;30.466;2023-08-21T07:11:52;9.85;;;8.75;;
35312;SDS011;21425;50.454;30.466;2023-08-21T07:14:17;11.32;;;7.97;;
35312;SDS011;21425;50.454;30.466;2023-08-21T07:16:43;10.25;;;8.38;;
35312;SDS011;21425;50.454;30.466;2023-08-21T07:19:09;17.05;;;9.00;;
35312;SDS011;21425;50.454;30.466;2023-08-21T07:21:35;12.40;;;8.50;;
35312;SDS011;21425;50.454;30.466;2023-08-21T07:24:03;11.25;;;8.18;;
35312;SDS011;21425;50.454;30.466;2023-08-21T07:26:29;11.10;;;8.52;;
35312;SDS011;21425;50.454;30.466;2023-08-21T07:28:55;9.80;;;8.80;;
35312;SDS011;21425;50.454;30.466;2023-08-21T07:31:21;10.13;;;8.13;;
35312;SDS011;21425;50.454;30.466;2023-08-21T07:33:47;13.68;;;8.60;;
35312;SDS011;21425;50.454;30.466;2023-08-21T07:36:12;13.82;;;8.43;;
35312;SDS011;21425;50.454;30.466;2023-08-21T07:38:43;14.15;;;8.95;;
35312;SDS011;21425;50.454;30.466;2023-08-21T07:41:10;10.05;;;9.00;;
35312;SDS011;21425;50.454;30.466;2023-08-21T07:43:37;10.68;;;7.80;;
35312;SDS011;21425;50.454;30.466;2023-08-21T07:46:08;13.02;;;7.85;;
35312;SDS011;21425;50.454;30.466;2023-08-21T07:48:38;10.30;;;8.07;;
35312;SDS011;21425;50.454;30.466;2023-08-21T07:51:04;12.23;;;7.75;;
35312;SDS011;21425;50.454;30.466;2023-08-21T07:53:30;9.48;;;7.45;;
35312;SDS011;21425;50.454;30.466;2023-08-21T07:55:56;8.73;;;6.88;;
35312;SDS011;21425;50.454;30.466;2023-08-21T07:58:22;11.38;;;7.78;;
35312;SDS011;21425;50.454;30.466;2023-08-21T08:00:48;9.25;;;7.90;;
35312;SDS011;21425;50.454;30.466;2023-08-21T08:03:14;15.32;;;8.40;;
35312;SDS011;21425;50.454;30.466;2023-08-21T08:05:40;9.90;;;7.13;;
35312;SDS011;21425;50.454;30.466;2023-08-21T08:08:07;8.18;;;7.30;;
35312;SDS011;21425;50.454;30.466;2023-08-21T08:10:33;9.98;;;7.82;;
35312;SDS011;21425;50.454;30.466;2023-08-21T08:12:58;10.32;;;6.93;;
35312;SDS011;21425;50.454;30.466;2023-08-21T08:15:24;9.43;;;7.90;;
35312;SDS011;21425;50.454;30.466;2023-08-21T08:17:53;11.57;;;7.65;;
35312;SDS011;21425;50.454;30.466;2023-08-21T08:20:20;13.45;;;7.88;;
35312;SDS011;21425;50.454;30.466;2023-08-21T08:22:46;14.70;;;7.90;;
35312;SDS011;21425;50.454;30.466;2023-08-21T08:25:12;8.95;;;7.35;;
35312;SDS011;21425;50.454;30.466;2023-08-21T08:27:38;8.50;;;7.57;;
35312;SDS011;21425;50.454;30.466;2023-08-21T08:30:05;12.10;;;8.00;;
35312;SDS011;21425;50.454;30.466;2023-08-21T08:32:31;8.10;;;7.28;;
35312;SDS011;21425;50.454;30.466;2023-08-21T08:34:57;11.30;;;8.20;;
35312;SDS011;21425;50.454;30.466;2023-08-21T08:37:24;10.73;;;8.32;;
35312;SDS011;21425;50.454;30.466;2023-08-21T08:39:50;11.80;;;8.35;;
35312;SDS011;21425;50.454;30.466;2023-08-21T08:42:15;12.55;;;8.30;;
35312;SDS011;21425;50.454;30.466;2023-08-21T08:44:42;10.20;;;7.72;;
35312;SDS011;21425;50.454;30.466;2023-08-21T08:47:09;8.70;;;7.20;;
35312;SDS011;21425;50.454;30.466;2023-08-21T08:49:36;12.73;;;7.90;;
35312;SDS011;21425;50.454;30.466;2023-08-21T08:52:02;10.05;;;6.82;;
35312;SDS011;21425;50.454;30.466;2023-08-21T08:54:29;11.38;;;7.75;;
35312;SDS011;21425;50.454;30.466;2023-08-21T08:56:54;9.35;;;6.93;;
35312;SDS011;21425;50.454;30.466;2023-08-21T08:59:20;11.15;;;7.13;;
35312;SDS011;21425;50.454;30.466;2023-08-21T09:01:46;9.32;;;6.63;;
35312;SDS011;21425;50.454;30.466;2023-08-21T09:04:11;11.88;;;6.97;;
35312;SDS011;21425;50.454;30.466;2023-08-21T09:06:38;13.05;;;6.45;;
35312;SDS011;21425;50.454;30.466;2023-08-21T09:09:03;10.13;;;6.90;;
35312;SDS011;21425;50.454;30.466;2023-08-21T09:11:29;9.73;;;6.80;;
35312;SDS011;21425;50.454;30.466;2023-08-21T09:13:55;11.88;;;6.45;;
35312;SDS011;21425;50.454;30.466;2023-08-21T09:16:23;7.10;;;6.40;;
35312;SDS011;21425;50.454;30.466;2023-08-21T09:18:51;9.48;;;7.28;;
35312;SDS011;21425;50.454;30.466;2023-08-21T09:21:19;8.38;;;6.80;;
35312;SDS011;21425;50.454;30.466;2023-08-21T09:23:45;12.30;;;6.80;;
35312;SDS011;21425;50.454;30.466;2023-08-21T09:26:18;8.98;;;6.70;;
35312;SDS011;21425;50.454;30.466;2023-08-21T09:28:50;8.20;;;6.28;;
35312;SDS011;21425;50.454;30.466;2023-08-21T09:31:21;7.75;;;6.50;;
35312;SDS011;21425;50.454;30.466;2023-08-21T09:33:54;8.30;;;6.75;;
35312;SDS011;21425;50.454;30.466;2023-08-21T09:36:29;9.83;;;6.77;;
35312;SDS011;21425;50.454;30.466;2023-08-21T09:38:55;9.10;;;6.32;;
35312;SDS011;21425;50.454;30.466;2023-08-21T09:41:22;10.18;;;6.63;;
35312;SDS011;21425;50.454;30.466;2023-08-21T09:43:48;8.52;;;6.25;;
35312;SDS011;21425;50.454;30.466;2023-08-21T09:46:33;9.20;;;6.47;;
35312;SDS011;21425;50.454;30.466;2023-08-21T09:48:58;7.78;;;6.45;;
35312;SDS011;21425;50.454;30.466;2023-08-21T09:51:25;6.95;;;5.45;;
35312;SDS011;21425;50.454;30.466;2023-08-21T09:53:52;7.72;;;5.95;;
35312;SDS011;21425;50.454;30.466;2023-08-21T09:56:19;10.32;;;6.80;;
35312;SDS011;21425;50.454;30.466;2023-08-21T09:58:46;8.00;;;7.20;;
35312;SDS011;21425;50.454;30.466;2023-08-21T10:01:13;8.30;;;7.03;;
35312;SDS011;21425;50.454;30.466;2023-08-21T10:03:41;17.05;;;7.03;;
35312;SDS011;21425;50.454;30.466;2023-08-21T10:06:14;8.75;;;7.82;;
35312;SDS011;21425;50.454;30.466;2023-08-21T10:08:41;10.18;;;8.15;;
35312;SDS011;21425;50.454;30.466;2023-08-21T10:11:09;10.25;;;8.10;;
35312;SDS011;21425;50.454;30.466;2023-08-21T10:13:36;10.20;;;8.40;;
35312;SDS011;21425;50.454;30.466;2023-08-21T10:16:03;11.63;;;8.73;;
35312;SDS011;21425;50.454;30.466;2023-08-21T10:18:31;10.63;;;8.88;;
35312;SDS011;21425;50.454;30.466;2023-08-21T10:21:10;13.23;;;9.55;;
35312;SDS011;21425;50.454;30.466;2023-08-21T10:23:37;14.95;;;10.85;;
35312;SDS011;21425;50.454;30.466;2023-08-21T10:26:05;15.85;;;10.75;;
35312;SDS011;21425;50.454;30.466;2023-08-21T10:28:51;14.75;;;12.18;;
35312;SDS011;21425;50.454;30.466;2023-08-21T10:31:41;14.48;;;10.90;;
35312;SDS011;21425;50.454;30.466;2023-08-21T10:34:09;15.85;;;10.00;;
35312;SDS011;21425;50.454;30.466;2023-08-21T10:41:56;18.00;;;9.65;;
35312;SDS011;21425;50.454;30.466;2023-08-21T10:44:35;12.00;;;8.80;;
35312;SDS011;21425;50.454;30.466;2023-08-21T10:49:50;12.48;;;9.90;;
35312;SDS011;21425;50.454;30.466;2023-08-21T10:53:00;14.85;;;9.07;;
35312;SDS011;21425;50.454;30.466;2023-08-21T10:55:10;11.00;;;9.25;;
35312;SDS011;21425;50.454;30.466;2023-08-21T10:57:37;10.57;;;8.23;;
35312;SDS011;21425;50.454;30.466;2023-08-21T11:00:05;11.25;;;8.50;;
35312;SDS011;21425;50.454;30.466;2023-08-21T11:02:36;13.77;;;9.65;;
35312;SDS011;21425;50.454;30.466;2023-08-21T11:05:02;19.08;;;10.85;;
35312;SDS011;21425;50.454;30.466;2023-08-21T11:07:28;10.05;;;8.93;;
35312;SDS011;21425;50.454;30.466;2023-08-21T11:09:54;10.50;;;8.93;;
35312;SDS011;21425;50.454;30.466;2023-08-21T11:12:21;13.55;;;9.93;;
35312;SDS011;21425;50.454;30.466;2023-08-21T11:14:48;12.93;;;9.60;;
35312;SDS011;21425;50.454;30.466;2023-08-21T11:17:14;12.32;;;10.55;;
35312;SDS011;21425;50.454;30.466;2023-08-21T11:19:41;10.95;;;9.82;;
35312;SDS011;21425;50.454;30.466;2023-08-21T11:22:07;11.30;;;9.38;;
35312;SDS011;21425;50.454;30.466;2023-08-21T11:27:03;13.57;;;10.77;;
35312;SDS011;21425;50.454;30.466;2023-08-21T11:29:36;11.73;;;10.05;;
35312;SDS011;21425;50.454;30.466;2023-08-21T11:32:16;11.50;;;10.15;;
35312;SDS011;21425;50.454;30.466;2023-08-21T11:34:48;12.18;;;10.38;;
35312;SDS011;21425;50.454;30.466;2023-08-21T11:37:16;13.18;;;10.32;;
35312;SDS011;21425;50.454;30.466;2023-08-21T11:39:43;11.82;;;10.55;;
35312;SDS011;21425;50.454;30.466;2023-08-21T11:42:10;14.02;;;10.40;;
35312;SDS011;21425;50.454;30.466;2023-08-21T11:44:47;10.70;;;7.95;;
35312;SDS011;21425;50.454;30.466;2023-08-21T11:47:19;13.73;;;8.10;;
35312;SDS011;21425;50.454;30.466;2023-08-21T11:49:46;20.50;;;10.38;;
35312;SDS011;21425;50.454;30.466;2023-08-21T11:52:14;23.92;;;14.10;;
35312;SDS011;21425;50.454;30.466;2023-08-21T11:54:40;15.23;;;13.63;;
35312;SDS011;21425;50.454;30.466;2023-08-21T11:57:13;13.68;;;12.27;;
35312;SDS011;21425;50.454;30.466;2023-08-21T11:59:39;14.85;;;11.27;;
35312;SDS011;21425;50.454;30.466;2023-08-21T12:02:09;11.60;;;9.68;;
35312;SDS011;21425;50.454;30.466;2023-08-21T12:04:35;17.02;;;12.00;;
35312;SDS011;21425;50.454;30.466;2023-08-21T12:07:01;24.92;;;18.45;;
35312;SDS011;21425;50.454;30.466;2023-08-21T12:09:27;18.23;;;11.93;;
35312;SDS011;21425;50.454;30.466;2023-08-21T12:11:53;16.70;;;11.98;;
35312;SDS011;21425;50.454;30.466;2023-08-21T12:14:19;22.83;;;12.07;;
35312;SDS011;21425;50.454;30.466;2023-08-21T12:16:45;17.48;;;11.23;;
35312;SDS011;21425;50.454;30.466;2023-08-21T12:19:11;11.15;;;7.78;;
35312;SDS011;21425;50.454;30.466;2023-08-21T12:21:39;9.65;;;6.25;;
35312;SDS011;21425;50.454;30.466;2023-08-21T12:24:05;8.77;;;7.05;;
35312;SDS011;21425;50.454;30.466;2023-08-21T12:26:31;7.13;;;5.88;;
35312;SDS011;21425;50.454;30.466;2023-08-21T12:29:00;7.20;;;5.07;;
35312;SDS011;21425;50.454;30.466;2023-08-21T12:31:26;9.18;;;6.32;;
35312;SDS011;21425;50.454;30.466;2023-08-21T12:33:52;5.07;;;4.00;;
35312;SDS011;21425;50.454;30.466;2023-08-21T12:36:17;5.47;;;3.97;;
35312;SDS011;21425;50.454;30.466;2023-08-21T12:38:43;5.63;;;3.72;;
35312;SDS011;21425;50.454;30.466;2023-08-21T12:41:09;4.95;;;4.30;;
35312;SDS011;21425;50.454;30.466;2023-08-21T12:43:34;8.63;;;4.55;;
35312;SDS011;21425;50.454;30.466;2023-08-21T12:46:00;9.27;;;5.10;;
35312;SDS011;21425;50.454;30.466;2023-08-21T12:48:25;6.50;;;5.00;;
35312;SDS011;21425;50.454;30.466;2023-08-21T12:50:51;5.65;;;4.43;;
35312;SDS011;21425;50.454;30.466;2023-08-21T12:53:16;7.93;;;4.72;;
35312;SDS011;21425;50.454;30.466;2023-08-21T12:55:42;7.05;;;5.28;;
35312;SDS011;21425;50.454;30.466;2023-08-21T12:58:09;6.47;;;5.25;;
35312;SDS011;21425;50.454;30.466;2023-08-21T13:00:35;8.32;;;5.55;;
35312;SDS011;21425;50.454;30.466;2023-08-21T13:03:00;7.55;;;5.38;;
35312;SDS011;21425;50.454;30.466;2023-08-21T13:05:26;8.93;;;5.78;;
35312;SDS011;21425;50.454;30.466;2023-08-21T13:07:51;7.68;;;6.55;;
35312;SDS011;21425;50.454;30.466;2023-08-21T13:10:18;6.80;;;6.15;;
35312;SDS011;21425;50.454;30.466;2023-08-21T13:12:43;7.00;;;6.30;;
35312;SDS011;21425;50.454;30.466;2023-08-21T13:15:09;7.70;;;6.72;;
35312;SDS011;21425;50.454;30.466;2023-08-21T13:17:35;11.48;;;7.80;;
35312;SDS011;21425;50.454;30.466;2023-08-21T13:20:02;8.68;;;7.25;;
35312;SDS011;21425;50.454;30.466;2023-08-21T13:22:28;11.85;;;7.07;;
35312;SDS011;21425;50.454;30.466;2023-08-21T13:24:54;7.60;;;6.80;;
35312;SDS011;21425;50.454;30.466;2023-08-21T13:27:20;11.68;;;8.40;;
35312;SDS011;21425;50.454;30.466;2023-08-21T13:29:46;9.90;;;8.18;;
35312;SDS011;21425;50.454;30.466;2023-08-21T13:32:12;9.82;;;8.25;;
35312;SDS011;21425;50.454;30.466;2023-08-21T13:34:37;9.90;;;7.40;;
35312;SDS011;21425;50.454;30.466;2023-08-21T13:37:03;10.55;;;7.10;;
35312;SDS011;21425;50.454;30.466;2023-08-21T13:39:29;8.00;;;7.05;;
35312;SDS011;21425;50.454;30.466;2023-08-21T13:41:56;8.35;;;7.05;;
35312;SDS011;21425;50.454;30.466;2023-08-21T13:44:21;8.65;;;6.88;;
35312;SDS011;21425;50.454;30.466;2023-08-21T13:46:47;10.32;;;7.35;;
35312;SDS011;21425;50.454;30.466;2023-08-21T13:49:13;7.75;;;6.50;;
35312;SDS011;21425;50.454;30.466;2023-08-21T13:51:39;12.23;;;7.63;;
35312;SDS011;21425;50.454;30.466;2023-08-21T13:54:05;11.73;;;8.13;;
35312;SDS011;21425;50.454;30.466;2023-08-21T13:56:31;9.38;;;8.07;;
35312;SDS011;21425;50.454;30.466;2023-08-21T13:58:57;12.88;;;8.35;;
35312;SDS011;21425;50.454;30.466;2023-08-21T14:01:22;18.58;;;8.30;;
35312;SDS011;21425;50.454;30.466;2023-08-21T14:03:48;10.75;;;8.00;;
35312;SDS011;21425;50.454;30.466;2023-08-21T14:06:14;8.45;;;7.30;;
35312;SDS011;21425;50.454;30.466;2023-08-21T14:08:40;7.45;;;6.65;;
35312;SDS011;21425;50.454;30.466;2023-08-21T14:11:06;7.55;;;6.80;;
35312;SDS011;21425;50.454;30.466;2023-08-21T14:13:32;8.95;;;6.70;;
35312;SDS011;21425;50.454;30.466;2023-08-21T14:15:57;9.65;;;7.20;;
35312;SDS011;21425;50.454;30.466;2023-08-21T14:18:23;7.93;;;6.95;;
35312;SDS011;21425;50.454;30.466;2023-08-21T14:20:49;9.95;;;6.82;;
35312;SDS011;21425;50.454;30.466;2023-08-21T14:23:14;7.90;;;6.28;;
35312;SDS011;21425;50.454;30.466;2023-08-21T14:25:40;7.30;;;6.45;;
35312;SDS011;21425;50.454;30.466;2023-08-21T14:28:05;10.70;;;6.50;;
35312;SDS011;21425;50.454;30.466;2023-08-21T14:30:31;6.95;;;6.30;;
35312;SDS011;21425;50.454;30.466;2023-08-21T14:32:57;7.25;;;6.43;;